logo
Search for airport 
image banner adimage banner adimage banner ad
image banner ad

YQNS - Queenstown

Located in Queenstown, Australia

ICAO - YQNS, IATA - UEE

Data provided by Airmate  

General information

Coordinates: S42°4'33" E145°31'52"
Elevation is 867 feet MSL.
Magnetic variation is 14° East
View others Airports in Tasmania

Operational data

Special qualification required
Current time UTC:
Current local time:
Weather at : - ( 0 km )
METAR: YSDU 171732Z AUTO 00000KT 0100 FG BKN001 00/M00 Q1018 RF00.0/000.0
View NOTAMs / SUP AIP / TFR affecting this airport [VIEW]
Communications frequencies: [VIEW]

Runways:

RWY identifierQFULength (ft)Width (ft)SurfaceLDA (ft)
09410198X
27410198X

Airport contact information

Address: Queenstown Australia

Satellite view of YQNS